createdAt,value
2023-04-12T00:01:30.122Z,69.45
2023-04-12T00:04:34.411Z,70.90
2023-04-12T00:07:38.207Z,70.76
2023-04-12T00:10:40.339Z,70.16
2023-04-12T00:13:41.788Z,70.68
2023-04-12T00:16:43.184Z,70.78
2023-04-12T00:19:45.414Z,70.93
2023-04-12T00:22:47.340Z,71.87
2023-04-12T00:25:49.116Z,73.62
2023-04-12T00:29:12.570Z,74.65
2023-04-12T00:32:15.891Z,77.11
2023-04-12T00:35:18.123Z,79.13
2023-04-12T00:38:21.462Z,80.26
2023-04-12T00:41:24.176Z,82.26
2023-04-12T00:44:26.135Z,82.94
2023-04-12T00:47:29.601Z,85.54
2023-04-12T00:50:31.876Z,87.68
2023-04-12T00:53:34.235Z,88.88
2023-04-12T00:56:40.238Z,88.91
2023-04-12T00:59:42.076Z,91.02
2023-04-12T01:02:50.822Z,94.30
2023-04-12T01:06:13.811Z,96.09
2023-04-12T01:09:30.899Z,98.93
2023-04-12T01:12:52.297Z,100.00
2023-04-12T01:15:59.970Z,100.00
2023-04-12T01:19:07.678Z,100.00
2023-04-12T01:22:48.006Z,100.00
2023-04-12T01:26:14.536Z,100.00
2023-04-12T01:29:19.589Z,100.00
2023-04-12T01:32:23.031Z,100.00
2023-04-12T01:35:29.863Z,100.00
2023-04-12T01:38:33.181Z,100.00
2023-04-12T01:41:41.682Z,100.00
2023-04-12T01:44:43.702Z,100.00
2023-04-12T01:47:45.712Z,100.00
2023-04-12T01:50:59.950Z,100.00
2023-04-12T01:54:13.059Z,100.00
2023-04-12T01:57:15.441Z,100.00
2023-04-12T02:00:18.572Z,100.00
2023-04-12T02:03:23.186Z,100.00
2023-04-12T02:06:27.006Z,100.00
2023-04-12T02:09:28.369Z,100.00
2023-04-12T02:12:30.771Z,100.00
2023-04-12T02:15:33.375Z,100.00
2023-04-12T02:18:37.791Z,100.00
2023-04-12T02:21:45.493Z,100.00
2023-04-12T02:24:47.761Z,100.00
2023-04-12T02:27:49.778Z,100.00
2023-04-12T02:30:53.905Z,100.00
2023-04-12T02:33:57.629Z,100.00
2023-04-12T02:37:00.124Z,100.00
2023-04-12T02:40:02.470Z,100.00
2023-04-12T02:43:06.609Z,100.00
2023-04-12T02:46:08.241Z,100.00
2023-04-12T02:49:19.397Z,100.00
2023-04-12T02:52:22.858Z,100.00
2023-04-12T02:55:44.647Z,100.00
2023-04-12T02:58:47.684Z,100.00
2023-04-12T03:01:57.349Z,100.00
2023-04-12T03:05:04.971Z,100.00
2023-04-12T03:08:15.302Z,100.00
2023-04-12T03:11:25.878Z,100.00
2023-04-12T03:14:28.483Z,100.00
2023-04-12T03:17:30.487Z,100.00
2023-04-12T03:20:33.839Z,100.00
2023-04-12T03:23:41.688Z,100.00
2023-04-12T03:26:52.131Z,100.00
2023-04-12T03:29:58.314Z,100.00
2023-04-12T03:33:01.206Z,100.00
2023-04-12T03:36:04.847Z,100.00
2023-04-12T03:39:06.883Z,100.00
2023-04-12T03:42:21.561Z,100.00
2023-04-12T03:45:32.070Z,100.00
2023-04-12T03:48:36.359Z,100.00
2023-04-12T03:51:43.096Z,100.00
2023-04-12T03:54:45.249Z,100.00
2023-04-12T03:57:50.939Z,100.00
2023-04-12T04:00:54.828Z,100.00
2023-04-12T04:03:57.394Z,100.00
2023-04-12T04:07:01.159Z,100.00
2023-04-12T04:10:08.659Z,100.00
2023-04-12T04:13:13.611Z,100.00
2023-04-12T04:16:15.131Z,100.00
2023-04-12T04:19:17.044Z,100.00
2023-04-12T04:22:21.458Z,100.00
2023-04-12T04:25:30.256Z,100.00
2023-04-12T04:28:39.179Z,100.00
2023-04-12T04:31:41.401Z,100.00
2023-04-12T04:34:43.720Z,100.00
2023-04-12T04:37:49.414Z,100.00
2023-04-12T04:40:54.122Z,100.00
2023-04-12T04:44:01.573Z,100.00
2023-04-12T04:47:08.464Z,100.00
2023-04-12T04:50:10.600Z,100.00
2023-04-12T04:53:13.598Z,100.00
2023-04-12T04:56:15.815Z,100.00
2023-04-12T04:59:20.453Z,100.00
2023-04-12T05:02:22.236Z,100.00
2023-04-12T05:05:25.850Z,100.00
2023-04-12T05:08:34.857Z,100.00
2023-04-12T05:11:37.288Z,100.00
2023-04-12T05:14:48.073Z,100.00
2023-04-12T05:17:53.565Z,100.00
2023-04-12T05:20:54.986Z,100.00
2023-04-12T05:23:56.756Z,100.00
2023-04-12T05:26:58.878Z,100.00
2023-04-12T05:30:00.844Z,100.00
2023-04-12T05:33:24.333Z,100.00
2023-04-12T05:36:26.241Z,100.00
2023-04-12T05:39:28.096Z,100.00
2023-04-12T05:42:30.019Z,100.00
2023-04-12T05:45:33.396Z,100.00
2023-04-12T05:48:35.153Z,100.00
2023-04-12T05:51:41.377Z,100.00
2023-04-12T05:54:49.235Z,100.00
2023-04-12T05:57:52.589Z,100.00
2023-04-12T06:00:56.089Z,100.00
2023-04-12T06:03:59.349Z,100.00
2023-04-12T06:07:03.063Z,100.00
2023-04-12T06:10:05.120Z,100.00
2023-04-12T06:13:07.285Z,100.00
2023-04-12T06:16:14.977Z,100.00
2023-04-12T06:19:20.315Z,100.00
2023-04-12T06:22:25.143Z,100.00
2023-04-12T06:25:48.989Z,100.00
2023-04-12T06:28:51.323Z,100.00
2023-04-12T06:31:53.811Z,100.00
2023-04-12T06:34:56.643Z,100.00
2023-04-12T06:37:58.481Z,100.00
2023-04-12T06:41:00.617Z,100.00
2023-04-12T06:44:04.319Z,100.00
2023-04-12T06:47:06.252Z,100.00
2023-04-12T06:50:08.836Z,100.00
2023-04-12T06:53:13.298Z,100.00
2023-04-12T06:56:17.236Z,100.00
2023-04-12T06:59:20.440Z,100.00
2023-04-12T07:02:22.548Z,100.00
2023-04-12T07:05:24.671Z,100.00
2023-04-12T07:08:28.673Z,100.00
2023-04-12T07:11:31.781Z,100.00
2023-04-12T07:14:34.371Z,100.00
2023-04-12T07:17:36.447Z,100.00
2023-04-12T07:20:37.990Z,100.00
2023-04-12T07:23:40.936Z,100.00
2023-04-12T07:27:01.273Z,100.00
2023-04-12T07:30:03.542Z,100.00
2023-04-12T07:33:18.608Z,100.00
2023-04-12T07:36:21.979Z,100.00
2023-04-12T07:39:25.465Z,100.00
2023-04-12T07:42:26.885Z,100.00
2023-04-12T07:45:29.590Z,100.00
2023-04-12T07:48:31.176Z,100.00
2023-04-12T07:51:33.450Z,100.00
2023-04-12T07:54:35.436Z,100.00
2023-04-12T07:57:37.174Z,100.00
2023-04-12T08:00:38.890Z,100.00
2023-04-12T08:03:41.760Z,100.00
2023-04-12T08:06:44.460Z,100.00
2023-04-12T08:09:47.071Z,100.00
2023-04-12T08:12:52.587Z,100.00
2023-04-12T08:15:54.742Z,100.00
2023-04-12T08:18:56.721Z,100.00
2023-04-12T08:21:59.251Z,100.00
2023-04-12T08:25:01.303Z,100.00
2023-04-12T08:28:03.889Z,100.00
2023-04-12T08:31:08.815Z,100.00
2023-04-12T08:34:10.696Z,100.00
2023-04-12T08:37:12.529Z,100.00
2023-04-12T08:40:14.426Z,100.00
2023-04-12T08:43:18.079Z,100.00
2023-04-12T08:46:20.408Z,100.00
2023-04-12T08:49:24.887Z,100.00
2023-04-12T08:52:26.999Z,100.00
2023-04-12T08:55:29.525Z,100.00
2023-04-12T08:58:31.693Z,100.00
2023-04-12T09:01:34.022Z,100.00
2023-04-12T09:04:53.231Z,100.00
2023-04-12T09:07:54.766Z,100.00
2023-04-12T09:10:56.582Z,100.00
2023-04-12T09:14:25.922Z,100.00
2023-04-12T09:17:28.443Z,100.00
2023-04-12T09:20:31.030Z,100.00
2023-04-12T09:23:32.556Z,100.00
2023-04-12T09:26:35.898Z,100.00
2023-04-12T09:29:38.090Z,100.00
2023-04-12T09:32:41.260Z,100.00
2023-04-12T09:35:43.655Z,100.00
2023-04-12T09:39:01.064Z,100.00
2023-04-12T09:42:05.459Z,100.00
2023-04-12T09:45:25.403Z,100.00
2023-04-12T09:48:28.723Z,100.00
2023-04-12T09:51:33.043Z,100.00
2023-04-12T09:54:40.936Z,100.00
2023-04-12T09:57:44.110Z,100.00
2023-04-12T10:00:47.435Z,100.00
2023-04-12T10:03:49.944Z,100.00
2023-04-12T10:06:53.401Z,100.00
2023-04-12T10:09:59.371Z,100.00
2023-04-12T10:13:05.787Z,100.00
2023-04-12T10:16:09.933Z,100.00
2023-04-12T10:19:14.313Z,100.00
2023-04-12T10:22:17.415Z,100.00
2023-04-12T10:25:25.064Z,100.00
2023-04-12T10:28:27.042Z,100.00
2023-04-12T10:31:30.733Z,100.00
2023-04-12T10:34:33.174Z,100.00
2023-04-12T10:38:02.557Z,100.00
2023-04-12T10:41:15.252Z,100.00
2023-04-12T10:44:26.695Z,100.00
2023-04-12T10:47:52.842Z,100.00
2023-04-12T10:51:17.997Z,100.00
2023-04-12T10:54:19.826Z,100.00
2023-04-12T10:57:42.421Z,100.00
2023-04-12T11:00:56.983Z,100.00
2023-04-12T11:04:17.389Z,100.00
2023-04-12T11:07:40.607Z,100.00
2023-04-12T11:11:22.587Z,100.00
2023-04-12T11:14:29.468Z,100.00
2023-04-12T11:17:31.055Z,100.00
2023-04-12T11:20:34.200Z,100.00
2023-04-12T11:23:37.819Z,100.00
2023-04-12T11:26:39.804Z,100.00
2023-04-12T11:29:43.174Z,100.00
2023-04-12T11:32:46.475Z,100.00
2023-04-12T11:35:48.011Z,100.00
2023-04-12T11:38:50.293Z,100.00
2023-04-12T11:41:52.136Z,100.00
2023-04-12T11:45:01.357Z,100.00
2023-04-12T11:48:28.060Z,100.00
2023-04-12T11:51:32.480Z,100.00
2023-04-12T11:54:35.333Z,100.00
2023-04-12T11:57:38.544Z,100.00
2023-04-12T12:00:42.216Z,100.00
2023-04-12T12:03:44.212Z,100.00
2023-04-12T12:06:47.086Z,100.00
2023-04-12T12:09:50.479Z,100.00
2023-04-12T12:12:57.017Z,100.00
2023-04-12T12:15:58.982Z,100.00
2023-04-12T12:19:04.114Z,100.00
2023-04-12T12:22:19.908Z,96.18
2023-04-12T12:25:23.420Z,97.15
2023-04-12T12:28:25.248Z,94.04
2023-04-12T12:31:28.863Z,98.26
2023-04-12T12:34:34.289Z,98.69
2023-04-12T12:37:36.722Z,99.23
2023-04-12T12:40:39.842Z,100.00
2023-04-12T12:43:52.257Z,98.31
2023-04-12T12:46:58.730Z,99.71
2023-04-12T12:50:09.859Z,96.88
2023-04-12T12:53:11.721Z,97.04
2023-04-12T12:56:14.717Z,98.21
2023-04-12T12:59:16.679Z,97.58
2023-04-12T13:02:21.199Z,97.58
2023-04-12T13:05:23.326Z,97.47
2023-04-12T13:08:26.030Z,96.42
2023-04-12T13:11:28.094Z,96.50
2023-04-12T13:14:30.430Z,93.34
2023-04-12T13:17:32.516Z,91.75
2023-04-12T13:20:34.465Z,91.03
2023-04-12T13:23:36.521Z,90.24
2023-04-12T13:26:38.414Z,92.65
2023-04-12T13:29:40.877Z,98.87
2023-04-12T13:32:44.523Z,100.00
2023-04-12T13:35:46.445Z,100.00
2023-04-12T13:38:48.345Z,100.00
2023-04-12T13:41:51.643Z,100.00
2023-04-12T13:44:53.035Z,100.00
2023-04-12T13:47:55.053Z,100.00
2023-04-12T13:50:57.216Z,100.00
2023-04-12T13:53:59.121Z,100.00
2023-04-12T13:57:02.098Z,100.00
2023-04-12T14:00:03.914Z,100.00
2023-04-12T14:03:06.484Z,100.00
2023-04-12T14:06:09.419Z,100.00
2023-04-12T14:09:29.521Z,100.00
2023-04-12T14:12:31.449Z,100.00
2023-04-12T14:15:33.263Z,100.00
2023-04-12T14:18:34.811Z,100.00
2023-04-12T14:21:37.603Z,100.00
2023-04-12T14:24:40.025Z,100.00
2023-04-12T14:27:42.090Z,100.00
2023-04-12T14:30:44.230Z,100.00
2023-04-12T14:33:47.072Z,100.00
2023-04-12T14:36:49.045Z,100.00
2023-04-12T14:39:53.522Z,100.00
2023-04-12T14:42:55.393Z,100.00
2023-04-12T14:45:57.186Z,100.00
2023-04-12T14:49:01.045Z,100.00
2023-04-12T14:52:02.867Z,100.00
2023-04-12T14:55:05.790Z,100.00
2023-04-12T14:58:08.011Z,100.00
2023-04-12T15:01:11.993Z,100.00
2023-04-12T15:04:14.121Z,100.00
2023-04-12T15:07:16.478Z,100.00
2023-04-12T15:10:19.820Z,100.00
2023-04-12T15:13:24.404Z,100.00
2023-04-12T15:16:29.148Z,100.00
2023-04-12T15:19:31.509Z,100.00
2023-04-12T15:22:37.611Z,100.00
2023-04-12T15:25:39.247Z,100.00
2023-04-12T15:28:40.836Z,100.00
2023-04-12T15:31:43.685Z,100.00
2023-04-12T15:34:46.146Z,100.00
2023-04-12T15:37:48.021Z,100.00
2023-04-12T15:41:10.551Z,100.00
2023-04-12T15:44:13.211Z,100.00
2023-04-12T15:47:15.273Z,100.00
2023-04-12T15:50:19.238Z,100.00
2023-04-12T15:53:25.517Z,100.00
2023-04-12T15:56:32.392Z,100.00
2023-04-12T15:59:33.855Z,100.00
2023-04-12T16:02:35.407Z,100.00
2023-04-12T16:05:37.402Z,100.00
2023-04-12T16:08:39.088Z,100.00
2023-04-12T16:11:41.201Z,100.00
2023-04-12T16:14:43.216Z,100.00
2023-04-12T16:17:49.330Z,100.00
2023-04-12T16:20:52.463Z,100.00
2023-04-12T16:23:54.031Z,100.00
2023-04-12T16:26:56.065Z,100.00
2023-04-12T16:29:58.079Z,100.00
2023-04-12T16:32:59.926Z,100.00
2023-04-12T16:36:02.522Z,100.00
2023-04-12T16:39:06.164Z,100.00
2023-04-12T16:42:08.288Z,100.00
2023-04-12T16:45:12.020Z,100.00
2023-04-12T16:48:16.443Z,100.00
2023-04-12T16:51:18.314Z,100.00
2023-04-12T16:54:19.731Z,100.00
2023-04-12T16:57:21.599Z,100.00
2023-04-12T17:00:25.193Z,100.00
2023-04-12T17:03:27.395Z,100.00
2023-04-12T17:06:30.192Z,100.00
2023-04-12T17:09:32.084Z,100.00
2023-04-12T17:12:34.653Z,100.00
2023-04-12T17:15:36.435Z,100.00
2023-04-12T17:18:40.197Z,100.00
2023-04-12T17:21:42.257Z,100.00
2023-04-12T17:24:44.119Z,100.00
2023-04-12T17:27:46.137Z,100.00
2023-04-12T17:30:48.218Z,100.00
2023-04-12T17:33:50.082Z,100.00
2023-04-12T17:36:55.046Z,100.00
2023-04-12T17:39:57.446Z,100.00
2023-04-12T17:42:59.230Z,100.00
2023-04-12T17:46:03.503Z,100.00
2023-04-12T17:49:06.973Z,100.00
2023-04-12T17:52:09.031Z,100.00
2023-04-12T17:55:12.306Z,100.00
2023-04-12T17:58:15.061Z,100.00
2023-04-12T18:01:17.021Z,100.00
2023-04-12T18:04:18.520Z,100.00
2023-04-12T18:07:20.700Z,100.00
2023-04-12T18:10:23.213Z,100.00
2023-04-12T18:13:25.533Z,100.00
2023-04-12T18:16:28.058Z,100.00
2023-04-12T18:19:30.093Z,100.00
2023-04-12T18:22:31.490Z,100.00
2023-04-12T18:25:32.901Z,100.00
2023-04-12T18:28:34.756Z,100.00
2023-04-12T18:31:38.604Z,100.00
2023-04-12T18:34:40.772Z,100.00
2023-04-12T18:37:43.489Z,100.00
2023-04-12T18:40:45.003Z,100.00
2023-04-12T18:43:46.721Z,100.00
2023-04-12T18:46:48.608Z,100.00
2023-04-12T18:49:50.372Z,100.00
2023-04-12T18:52:51.784Z,100.00
2023-04-12T18:55:53.628Z,100.00
2023-04-12T18:58:56.726Z,100.00
2023-04-12T19:01:58.484Z,100.00
2023-04-12T19:05:00.199Z,100.00
2023-04-12T19:08:01.909Z,100.00
2023-04-12T19:11:04.570Z,100.00
2023-04-12T19:14:07.447Z,100.00
2023-04-12T19:17:09.376Z,100.00
2023-04-12T19:20:11.283Z,100.00
2023-04-12T19:23:13.660Z,100.00
2023-04-12T19:26:16.961Z,100.00
2023-04-12T19:29:19.614Z,100.00
2023-04-12T19:32:22.372Z,100.00
2023-04-12T19:35:23.999Z,100.00
2023-04-12T19:38:25.696Z,100.00
2023-04-12T19:41:28.296Z,100.00
2023-04-12T19:44:30.409Z,100.00
2023-04-12T19:47:32.866Z,100.00
2023-04-12T19:50:36.016Z,100.00
2023-04-12T19:53:37.769Z,100.00
2023-04-12T19:56:39.433Z,100.00
2023-04-12T19:59:41.089Z,100.00
2023-04-12T20:02:43.031Z,100.00
2023-04-12T20:05:45.915Z,100.00
2023-04-12T20:08:47.640Z,100.00
2023-04-12T20:11:49.550Z,100.00
2023-04-12T20:14:51.895Z,100.00
2023-04-12T20:17:54.206Z,100.00
2023-04-12T20:20:57.843Z,100.00
2023-04-12T20:24:00.437Z,100.00
2023-04-12T20:27:02.237Z,100.00
2023-04-12T20:30:05.314Z,100.00
2023-04-12T20:33:08.406Z,100.00
2023-04-12T20:36:10.656Z,100.00
2023-04-12T20:39:12.661Z,100.00
2023-04-12T20:42:16.389Z,100.00
2023-04-12T20:45:18.769Z,100.00
2023-04-12T20:48:20.632Z,100.00
2023-04-12T20:51:22.451Z,100.00
2023-04-12T20:54:25.680Z,100.00
2023-04-12T20:57:27.469Z,100.00
2023-04-12T21:00:29.734Z,100.00
2023-04-12T21:03:32.434Z,100.00
2023-04-12T21:06:34.409Z,100.00
2023-04-12T21:09:36.719Z,100.00
2023-04-12T21:12:39.772Z,100.00
2023-04-12T21:15:43.239Z,100.00
2023-04-12T21:18:44.944Z,100.00
2023-04-12T21:21:46.783Z,100.00
2023-04-12T21:24:48.825Z,100.00
2023-04-12T21:27:50.652Z,100.00
2023-04-12T21:30:55.245Z,100.00
2023-04-12T21:33:59.208Z,100.00
2023-04-12T21:37:02.081Z,100.00
2023-04-12T21:40:12.402Z,100.00
2023-04-12T21:43:14.000Z,100.00
2023-04-12T21:46:15.520Z,100.00
2023-04-12T21:49:17.722Z,100.00
2023-04-12T21:52:19.380Z,100.00
2023-04-12T21:55:21.570Z,100.00
2023-04-12T21:58:23.048Z,100.00
2023-04-12T22:01:24.784Z,100.00
2023-04-12T22:04:27.074Z,100.00
2023-04-12T22:07:28.738Z,100.00
2023-04-12T22:10:34.274Z,100.00
2023-04-12T22:13:41.244Z,100.00
2023-04-12T22:16:42.935Z,100.00
2023-04-12T22:19:45.101Z,100.00
2023-04-12T22:22:46.769Z,100.00
2023-04-12T22:25:49.717Z,100.00
2023-04-12T22:28:51.111Z,100.00
2023-04-12T22:31:53.047Z,100.00
2023-04-12T22:35:05.209Z,100.00
2023-04-12T22:38:12.272Z,100.00
2023-04-12T22:41:17.425Z,100.00
2023-04-12T22:44:22.984Z,100.00
2023-04-12T22:47:26.274Z,100.00
2023-04-12T22:50:28.000Z,100.00
2023-04-12T22:53:33.079Z,100.00
2023-04-12T22:56:41.934Z,100.00
2023-04-12T22:59:43.977Z,100.00
2023-04-12T23:02:46.381Z,100.00
2023-04-12T23:05:50.127Z,100.00
2023-04-12T23:08:52.034Z,100.00
2023-04-12T23:11:53.684Z,100.00
2023-04-12T23:14:55.510Z,100.00
2023-04-12T23:17:57.353Z,100.00
2023-04-12T23:21:00.823Z,100.00
2023-04-12T23:24:02.746Z,100.00
2023-04-12T23:27:04.433Z,100.00
2023-04-12T23:30:06.708Z,100.00
2023-04-12T23:33:09.367Z,100.00
2023-04-12T23:36:11.921Z,100.00
2023-04-12T23:39:13.564Z,100.00
2023-04-12T23:42:15.316Z,97.65
2023-04-12T23:45:17.082Z,97.16
2023-04-12T23:48:19.469Z,96.09
2023-04-12T23:51:21.932Z,94.60
2023-04-12T23:54:24.153Z,94.24
2023-04-12T23:57:26.100Z,93.97
